Time;durP1;ratioP1;P1;durP2;ratioP2;P2;SDS_P1;SDS_P2;PMS_P1;PMS_P2;Temp;Humidity;BMP_temperature;BMP_pressure;BME280_temperature;BME280_humidity;BME280_pressure;Samples;Min_cycle;Max_cycle;Signal;HPM_P1;HPM_P2
2021/12/28 00:00:30;;;;;;;5.38;2.75;;;;;;;-1.37;66.06;99398.13;5064546;28;20021;-73
2021/12/28 00:02:57;;;;;;;12.02;5.50;;;;;;;-1.20;65.74;99380.72;5063896;28;20040;-76
2021/12/28 00:05:24;;;;;;;6.35;3.97;;;;;;;-1.20;65.21;99395.16;5064460;28;20074;-73
2021/12/28 00:08:04;;;;;;;9.05;3.28;;;;;;;-1.15;65.14;99386.78;5064400;28;20025;-74
2021/12/28 00:10:30;;;;;;;7.05;3.70;;;;;;;-1.47;66.39;99398.75;5063052;28;20029;-73
2021/12/28 00:12:55;;;;;;;6.07;3.67;;;;;;;-1.40;66.62;99367.50;5064203;28;20109;-74
2021/12/28 00:18:02;;;;;;;7.82;2.63;;;;;;;-1.18;66.00;99380.75;5064303;28;20021;-73
2021/12/28 00:20:32;;;;;;;6.05;3.33;;;;;;;-1.36;66.59;99374.41;5064213;28;20048;-73
2021/12/28 00:22:58;;;;;;;15.85;2.80;;;;;;;-1.55;67.25;99368.88;5064320;28;20025;-73
2021/12/28 00:25:24;;;;;;;13.90;3.67;;;;;;;-1.52;67.54;99371.50;5064290;28;20035;-72
2021/12/28 00:27:50;;;;;;;9.88;4.15;;;;;;;-1.39;67.25;99367.56;5063917;28;20072;-74
2021/12/28 00:30:16;;;;;;;9.35;4.13;;;;;;;-1.26;67.42;99376.34;5062880;28;20013;-72
2021/12/28 00:32:42;;;;;;;9.05;4.35;;;;;;;-1.35;67.34;99368.50;5064034;28;20062;-76
2021/12/28 00:35:08;;;;;;;8.30;3.55;;;;;;;-1.07;65.92;99373.38;5063990;28;20040;-74
2021/12/28 00:37:34;;;;;;;7.10;3.10;;;;;;;-1.23;66.57;99360.25;5063713;28;20025;-74
2021/12/28 00:39:59;;;;;;;9.95;3.83;;;;;;;-1.34;67.20;99367.66;5063869;28;20027;-75
2021/12/28 00:42:24;;;;;;;8.93;4.53;;;;;;;-1.35;67.54;99360.84;5064022;28;20028;-75
2021/12/28 00:44:50;;;;;;;6.35;3.05;;;;;;;-1.28;67.09;99357.59;5063810;28;20051;-73
2021/12/28 00:47:16;;;;;;;8.38;2.78;;;;;;;-1.29;67.41;99366.09;5063869;28;20044;-72
2021/12/28 00:49:41;;;;;;;8.02;3.33;;;;;;;-1.29;68.01;99370.31;5063582;28;20029;-73
2021/12/28 00:52:07;;;;;;;9.27;4.57;;;;;;;-1.16;67.77;99374.00;5063482;28;20044;-74
2021/12/28 00:54:33;;;;;;;7.75;3.00;;;;;;;-1.02;66.73;99370.06;5064147;28;20027;-73
2021/12/28 00:56:58;;;;;;;6.18;3.33;;;;;;;-0.98;66.51;99370.13;5063719;28;20052;-75
2021/12/28 00:59:24;;;;;;;7.97;3.63;;;;;;;-1.02;66.73;99364.09;5063471;28;20044;-75
2021/12/28 01:01:49;;;;;;;12.52;5.03;;;;;;;-1.15;67.31;99378.28;5063513;28;20043;-72
2021/12/28 01:04:15;;;;;;;7.18;3.30;;;;;;;-0.95;67.24;99368.53;5063557;28;20033;-72
2021/12/28 01:06:40;;;;;;;8.75;3.22;;;;;;;-1.04;66.70;99351.34;5063497;28;20049;-74
2021/12/28 01:09:05;;;;;;;4.25;3.08;;;;;;;-1.15;67.68;99373.19;5063397;28;20017;-74
2021/12/28 01:11:31;;;;;;;5.65;3.40;;;;;;;-0.82;66.31;99366.25;5063400;28;20040;-75
2021/12/28 01:13:56;;;;;;;5.45;2.75;;;;;;;-0.81;65.84;99352.66;5063945;28;20021;-75
2021/12/28 01:16:22;;;;;;;6.88;3.22;;;;;;;-0.87;66.18;99361.03;5067625;28;20176;-75
2021/12/28 01:18:47;;;;;;;9.50;4.13;;;;;;;-0.77;66.01;99370.59;5067752;28;20377;-74
2021/12/28 01:21:13;;;;;;;4.35;3.15;;;;;;;-0.91;66.71;99362.66;5067443;28;20032;-73
2021/12/28 01:23:38;;;;;;;7.70;3.33;;;;;;;-0.89;66.47;99361.00;5067520;28;20508;-75
2021/12/28 01:26:03;;;;;;;10.07;5.28;;;;;;;-1.15;67.43;99358.75;5067591;28;20397;-75
2021/12/28 01:28:29;;;;;;;8.70;3.63;;;;;;;-1.01;66.97;99358.22;5067141;28;20028;-73
2021/12/28 01:30:54;;;;;;;4.95;3.38;;;;;;;-1.18;67.95;99338.31;5067504;28;20101;-75
2021/12/28 01:33:20;;;;;;;7.88;4.10;;;;;;;-0.92;67.39;99366.03;5067450;28;20531;-74
2021/12/28 01:35:46;;;;;;;11.23;5.50;;;;;;;-0.64;66.09;99355.56;5067107;28;20027;-75
2021/12/28 01:38:11;;;;;;;10.15;3.90;;;;;;;-0.88;66.57;99372.06;5065781;28;20349;-76
2021/12/28 01:40:40;;;;;;;6.93;3.88;;;;;;;-0.89;67.02;99368.66;5067223;28;20029;-74
2021/12/28 01:43:17;;;;;;;10.93;5.13;;;;;;;-1.06;67.78;99370.84;5065792;28;20436;-74
2021/12/28 01:45:53;;;;;;;8.68;4.25;;;;;;;-0.98;67.48;99363.38;5067463;28;20028;-75
2021/12/28 01:48:22;;;;;;;12.50;4.88;;;;;;;-1.03;67.65;99386.19;5066939;28;20032;-73
2021/12/28 01:50:50;;;;;;;9.43;4.68;;;;;;;-1.08;68.04;99385.22;5065381;28;20048;-74
2021/12/28 01:53:16;;;;;;;8.63;3.97;;;;;;;-1.09;68.57;99377.56;5067095;28;20049;-74
2021/12/28 01:55:45;;;;;;;12.00;4.82;;;;;;;-1.06;68.69;99358.09;5066953;28;20021;-75
2021/12/28 01:58:10;;;;;;;9.20;4.45;;;;;;;-1.09;68.63;99352.94;5066757;28;20574;-75
2021/12/28 02:00:37;;;;;;;8.82;3.72;;;;;;;-0.80;67.88;99351.84;5066933;28;20020;-75
2021/12/28 02:03:12;;;;;;;8.77;4.00;;;;;;;-0.80;67.53;99339.94;5066784;28;20112;-74
2021/12/28 02:05:38;;;;;;;9.85;3.75;;;;;;;-1.15;68.96;99342.63;5066814;28;20036;-74
2021/12/28 02:08:05;;;;;;;7.10;3.58;;;;;;;-0.90;68.74;99330.41;5066707;28;20017;-75
2021/12/28 02:10:32;;;;;;;11.52;5.22;;;;;;;-1.20;69.66;99345.06;5065045;28;20021;-74
2021/12/28 02:12:58;;;;;;;7.50;4.78;;;;;;;-0.83;68.81;99352.63;5066121;28;20085;-72
2021/12/28 02:15:24;;;;;;;8.60;4.47;;;;;;;-1.00;69.35;99342.09;5066184;28;20024;-74
2021/12/28 02:17:49;;;;;;;13.88;3.88;;;;;;;-1.10;70.04;99337.63;5064437;28;20029;-75
2021/12/28 02:20:17;;;;;;;8.02;3.13;;;;;;;-1.20;70.83;99329.78;5066048;28;20021;-75
2021/12/28 02:22:43;;;;;;;10.25;4.43;;;;;;;-1.14;70.57;99336.69;5065707;28;20028;-74
2021/12/28 02:25:11;;;;;;;9.02;4.20;;;;;;;-1.52;72.13;99343.47;5065999;28;20031;-74
2021/12/28 02:27:37;;;;;;;6.53;3.10;;;;;;;-1.06;71.57;99332.63;5065067;28;20041;-76
2021/12/28 02:30:12;;;;;;;9.45;3.53;;;;;;;-1.36;72.32;99333.69;5065772;28;20121;-74
2021/12/28 02:32:39;;;;;;;5.13;3.42;;;;;;;-1.32;72.39;99320.19;5065869;28;20025;-74
2021/12/28 02:35:10;;;;;;;10.65;4.22;;;;;;;-1.23;72.61;99326.31;5065961;28;20025;-73
2021/12/28 02:37:36;;;;;;;12.77;5.13;;;;;;;-1.50;73.60;99321.47;5065968;28;20025;-74
2021/12/28 02:40:03;;;;;;;14.38;4.00;;;;;;;-1.14;73.19;99331.59;5065838;28;20059;-74
2021/12/28 02:42:28;;;;;;;9.05;3.97;;;;;;;-1.44;74.19;99323.31;5066171;28;20025;-74
2021/12/28 02:44:59;;;;;;;8.73;4.10;;;;;;;-1.40;74.33;99307.28;5064563;28;20023;-74
2021/12/28 02:47:25;;;;;;;4.85;3.28;;;;;;;-1.46;75.18;99306.28;5065945;28;20029;-75
2021/12/28 02:49:50;;;;;;;9.30;4.32;;;;;;;-1.60;75.72;99291.56;5065690;28;20181;-75
2021/12/28 02:52:17;;;;;;;8.98;2.85;;;;;;;-1.66;76.04;99309.22;5065738;28;20047;-75
2021/12/28 02:54:42;;;;;;;10.50;4.60;;;;;;;-1.55;76.33;99306.94;5065818;28;20474;-75
2021/12/28 02:57:08;;;;;;;9.50;5.28;;;;;;;-1.47;76.66;99287.56;5065741;28;20017;-75
2021/12/28 02:59:34;;;;;;;13.43;5.28;;;;;;;-1.41;76.77;99289.41;5065462;28;20079;-75
2021/12/28 03:01:59;;;;;;;16.05;8.05;;;;;;;-1.62;76.91;99290.66;5065642;28;20547;-74
2021/12/28 03:04:27;;;;;;;9.75;4.60;;;;;;;-1.59;77.48;99295.81;5064214;28;20024;-75
2021/12/28 03:06:53;;;;;;;12.75;5.35;;;;;;;-1.79;78.47;99292.81;5065256;28;20032;-75
2021/12/28 03:09:20;;;;;;;7.63;3.83;;;;;;;-1.62;78.19;99281.34;5065163;28;20025;-75
2021/12/28 03:11:46;;;;;;;10.98;5.45;;;;;;;-1.54;77.76;99267.91;5065206;28;20067;-76
2021/12/28 03:14:12;;;;;;;16.15;6.07;;;;;;;-1.62;77.90;99277.94;5065311;28;20095;-75
2021/12/28 03:16:38;;;;;;;9.95;4.07;;;;;;;-1.70;79.05;99289.59;5063926;28;20392;-76
2021/12/28 03:19:04;;;;;;;7.28;4.53;;;;;;;-1.77;79.16;99269.09;5065091;28;20032;-73
2021/12/28 03:21:30;;;;;;;11.77;4.40;;;;;;;-1.59;78.32;99270.34;5065005;28;20021;-75
2021/12/28 03:23:57;;;;;;;11.45;4.63;;;;;;;-1.78;79.10;99257.22;5065001;28;20021;-76
2021/12/28 03:26:23;;;;;;;18.92;8.25;;;;;;;-1.83;79.45;99275.72;5065102;28;20349;-75
2021/12/28 03:28:48;;;;;;;11.45;5.10;;;;;;;-1.52;78.96;99269.66;5065308;28;20043;-75
2021/12/28 03:31:17;;;;;;;17.00;5.18;;;;;;;-1.61;79.60;99259.28;5065207;28;20044;-75
2021/12/28 03:33:44;;;;;;;12.18;5.35;;;;;;;-1.51;79.20;99261.22;5065147;28;20059;-74
2021/12/28 03:36:10;;;;;;;9.23;5.10;;;;;;;-1.53;79.16;99269.63;5064825;28;20044;-72
2021/12/28 03:38:38;;;;;;;19.15;4.53;;;;;;;-1.54;79.84;99263.69;5063974;28;20080;-74
2021/12/28 03:41:07;;;;;;;13.45;6.68;;;;;;;-1.71;80.36;99254.81;5064663;28;20021;-75
2021/12/28 03:43:37;;;;;;;11.98;5.13;;;;;;;-1.59;79.85;99252.53;5063417;28;20017;-75
2021/12/28 03:46:05;;;;;;;11.07;4.47;;;;;;;-1.68;80.38;99255.75;5064320;28;20029;-75
2021/12/28 03:48:30;;;;;;;10.23;5.57;;;;;;;-1.59;80.34;99239.81;5062826;28;20021;-75
2021/12/28 03:50:55;;;;;;;10.70;5.28;;;;;;;-1.34;79.65;99259.88;5063910;28;20079;-74
2021/12/28 03:53:21;;;;;;;10.05;5.15;;;;;;;-1.36;79.60;99254.75;5064188;28;20025;-77
2021/12/28 03:55:46;;;;;;;10.75;4.72;;;;;;;-1.46;79.94;99255.34;5064224;28;20021;-75
2021/12/28 03:58:12;;;;;;;16.15;6.03;;;;;;;-1.62;80.80;99242.28;5064065;28;20021;-75
2021/12/28 04:00:42;;;;;;;8.32;4.65;;;;;;;-1.76;81.41;99247.91;5064431;28;20028;-75
2021/12/28 04:03:08;;;;;;;15.18;5.55;;;;;;;-1.64;81.23;99236.31;5064155;28;20082;-75
2021/12/28 04:05:34;;;;;;;5.25;3.40;;;;;;;-1.52;80.85;99245.91;5064029;28;20052;-75
2021/12/28 04:08:00;;;;;;;16.58;6.40;;;;;;;-1.45;80.83;99237.56;5063863;28;20028;-75
2021/12/28 04:10:38;;;;;;;10.02;5.18;;;;;;;-1.43;80.43;99232.50;5063965;28;20055;-74
2021/12/28 04:13:03;;;;;;;16.85;5.13;;;;;;;-1.35;79.64;99214.84;5064151;28;20271;-73
2021/12/28 04:15:29;;;;;;;9.00;4.95;;;;;;;-1.34;79.94;99224.22;5064258;28;20119;-71
2021/12/28 04:17:54;;;;;;;9.02;5.00;;;;;;;-1.34;79.91;99225.06;5062960;28;20013;-76
2021/12/28 04:20:22;;;;;;;16.73;6.82;;;;;;;-1.19;79.61;99221.97;5064233;28;20063;-73
2021/12/28 04:22:48;;;;;;;15.57;6.68;;;;;;;-1.18;79.40;99217.75;5062584;28;20025;-72
2021/12/28 04:25:17;;;;;;;17.42;7.03;;;;;;;-1.15;79.76;99216.09;5062926;28;20032;-75
2021/12/28 04:27:43;;;;;;;16.10;5.47;;;;;;;-1.21;80.04;99210.03;5064102;28;20028;-76
2021/12/28 04:30:10;;;;;;;9.60;4.70;;;;;;;-1.21;79.79;99205.78;5064006;28;20040;-75
2021/12/28 04:32:36;;;;;;;9.13;5.22;;;;;;;-1.24;80.21;99208.28;5063590;28;20020;-76
2021/12/28 04:35:02;;;;;;;16.40;6.60;;;;;;;-1.27;80.45;99210.78;5063879;28;20377;-75
2021/12/28 04:37:27;;;;;;;16.15;6.38;;;;;;;-1.01;79.33;99200.25;5063982;28;20043;-75
2021/12/28 04:39:53;;;;;;;16.85;7.07;;;;;;;-1.02;79.30;99201.94;5063695;28;20200;-74
2021/12/28 04:42:18;;;;;;;13.30;8.18;;;;;;;-1.25;80.49;99194.69;5064136;28;20459;-75
2021/12/28 04:44:46;;;;;;;18.52;8.00;;;;;;;-1.01;79.89;99173.06;5063940;28;20025;-73
2021/12/28 04:47:11;;;;;;;10.70;4.50;;;;;;;-1.23;80.16;99188.78;5063670;28;20035;-74
2021/12/28 04:49:36;;;;;;;17.38;7.75;;;;;;;-1.10;80.20;99183.06;5061986;28;20048;-75
2021/12/28 04:52:04;;;;;;;10.70;7.03;;;;;;;-1.01;80.13;99177.31;5063512;28;20025;-75
2021/12/28 04:54:29;;;;;;;12.95;6.20;;;;;;;-1.08;80.50;99191.63;5063616;28;20036;-75
2021/12/28 04:56:55;;;;;;;13.48;6.72;;;;;;;-1.08;80.67;99176.34;5063650;28;20193;-73
2021/12/28 04:59:20;;;;;;;13.30;7.85;;;;;;;-1.07;80.71;99177.22;5063402;28;20464;-73
2021/12/28 05:01:45;;;;;;;13.68;6.28;;;;;;;-1.06;80.47;99158.53;5063713;28;20017;-74
2021/12/28 05:04:11;;;;;;;13.02;7.93;;;;;;;-1.08;80.60;99140.66;5063645;28;20055;-74
2021/12/28 05:06:37;;;;;;;26.27;7.88;;;;;;;-0.98;80.45;99166.31;5063247;28;20512;-75
2021/12/28 05:09:10;;;;;;;15.68;6.63;;;;;;;-0.83;80.26;99164.03;5063283;28;20056;-76
2021/12/28 05:11:36;;;;;;;12.00;5.38;;;;;;;-0.98;80.42;99161.22;5063437;28;20056;-73
2021/12/28 05:14:04;;;;;;;13.18;5.82;;;;;;;-0.98;80.77;99151.91;5063582;28;20037;-75
2021/12/28 05:16:30;;;;;;;22.75;7.38;;;;;;;-0.95;80.89;99145.97;5063360;28;20032;-75
2021/12/28 05:18:56;;;;;;;4.45;3.38;;;;;;;-1.13;81.59;99152.47;5063591;28;20361;-72
2021/12/28 05:21:23;;;;;;;10.85;5.38;;;;;;;-0.79;80.44;99153.09;5063226;28;20021;-75
2021/12/28 05:23:48;;;;;;;13.63;6.72;;;;;;;-0.71;80.09;99130.28;5063496;28;20536;-75
2021/12/28 05:26:13;;;;;;;8.38;5.47;;;;;;;-0.89;80.71;99138.44;5063142;28;20025;-75
2021/12/28 05:28:39;;;;;;;12.60;6.63;;;;;;;-0.75;80.33;99129.34;5061788;28;20025;-75
2021/12/28 05:31:04;;;;;;;14.02;7.20;;;;;;;-0.80;80.76;99140.31;5063307;28;20021;-75
2021/12/28 05:33:30;;;;;;;12.50;6.95;;;;;;;-0.80;80.50;99135.22;5062165;28;20473;-76
2021/12/28 05:35:55;;;;;;;12.10;5.82;;;;;;;-0.69;80.06;99127.75;5063018;28;20021;-74
2021/12/28 05:38:20;;;;;;;18.40;7.43;;;;;;;-0.83;80.80;99138.56;5063400;28;20021;-74
2021/12/28 05:40:46;;;;;;;11.68;5.60;;;;;;;-0.71;80.15;99132.81;5061904;28;20035;-74
2021/12/28 05:43:11;;;;;;;23.13;9.55;;;;;;;-0.78;80.70;99125.88;5063092;28;20028;-74
2021/12/28 05:45:37;;;;;;;15.85;4.85;;;;;;;-0.82;81.14;99131.78;5063182;28;20036;-74
2021/12/28 05:48:02;;;;;;;10.32;6.07;;;;;;;-0.59;80.38;99142.34;5062986;28;20021;-75
2021/12/28 05:50:28;;;;;;;15.27;6.93;;;;;;;-0.70;80.58;99149.81;5061862;28;20025;-74
2021/12/28 05:52:53;;;;;;;17.15;8.27;;;;;;;-0.70;80.39;99143.88;5063147;28;20025;-73
2021/12/28 05:55:18;;;;;;;18.08;7.53;;;;;;;-0.52;80.25;99123.78;5063034;28;20060;-76
2021/12/28 05:57:44;;;;;;;11.48;6.85;;;;;;;-0.48;79.92;99121.28;5063506;28;20017;-76
2021/12/28 06:00:10;;;;;;;13.55;6.68;;;;;;;-0.61;80.00;99120.22;5062988;28;20074;-71
2021/12/28 06:02:37;;;;;;;14.90;7.18;;;;;;;-0.46;79.96;99104.31;5066092;28;20028;-74
2021/12/28 06:05:04;;;;;;;14.60;7.82;;;;;;;-0.48;79.89;99104.31;5066938;28;20676;-72
2021/12/28 06:07:29;;;;;;;13.32;7.65;;;;;;;-0.64;80.51;99081.09;5066633;28;20032;-69
2021/12/28 06:09:55;;;;;;;25.42;9.90;;;;;;;-0.61;80.32;99085.41;5066613;28;20032;-69
2021/12/28 06:12:21;;;;;;;20.60;8.55;;;;;;;-0.55;79.82;99074.44;5066596;28;20040;-71
2021/12/28 06:14:47;;;;;;;19.52;8.80;;;;;;;-0.55;79.59;99098.25;5065328;28;20013;-69
2021/12/28 06:17:12;;;;;;;8.90;5.43;;;;;;;-0.44;79.70;99084.78;5066711;28;20045;-70
2021/12/28 06:19:37;;;;;;;22.92;8.88;;;;;;;-0.43;79.78;99086.53;5066387;28;20465;-70
2021/12/28 06:22:03;;;;;;;19.77;8.57;;;;;;;-0.55;79.91;99105.03;5066289;28;20025;-69
2021/12/28 06:24:29;;;;;;;12.95;6.35;;;;;;;-0.57;80.29;99087.16;5066450;28;20033;-71
2021/12/28 06:26:54;;;;;;;22.15;10.52;;;;;;;-0.56;80.17;99091.41;5066248;28;20029;-70
2021/12/28 06:29:20;;;;;;;17.13;8.70;;;;;;;-0.59;80.61;99093.06;5066210;28;20021;-71
2021/12/28 06:31:45;;;;;;;17.30;8.55;;;;;;;-0.26;79.79;99095.25;5066499;28;20361;-71
2021/12/28 06:34:10;;;;;;;18.95;8.85;;;;;;;-0.32;79.62;99109.63;5066202;28;20024;-71
2021/12/28 06:36:37;;;;;;;13.98;7.63;;;;;;;-0.53;80.48;99095.72;5065956;28;20082;-70
2021/12/28 06:39:03;;;;;;;11.52;6.13;;;;;;;-0.35;79.92;99091.72;5065764;28;20059;-71
2021/12/28 06:41:29;;;;;;;23.98;10.77;;;;;;;-0.41;79.89;99079.72;5065709;28;20032;-69
2021/12/28 06:43:54;;;;;;;14.75;7.38;;;;;;;-0.52;80.65;99077.91;5065755;28;20017;-70
2021/12/28 06:46:20;;;;;;;17.60;7.32;;;;;;;-0.42;80.22;99085.69;5065675;28;20017;-70
2021/12/28 06:48:45;;;;;;;14.45;6.47;;;;;;;-0.21;79.38;99071.53;5065794;28;20028;-70
2021/12/28 06:51:11;;;;;;;14.57;7.60;;;;;;;-0.40;79.77;99076.38;5065330;28;20021;-70
2021/12/28 06:53:37;;;;;;;19.45;9.32;;;;;;;-0.42;80.38;99067.81;5065844;28;20021;-70
2021/12/28 06:56:03;;;;;;;16.02;6.82;;;;;;;-0.29;79.63;99079.91;5065875;28;20543;-71
2021/12/28 06:58:29;;;;;;;20.80;6.63;;;;;;;-0.29;79.60;99067.16;5065645;28;20045;-71
2021/12/28 07:00:54;;;;;;;21.83;8.85;;;;;;;-0.27;79.78;99069.72;5065730;28;20024;-71
2021/12/28 07:03:20;;;;;;;14.05;7.70;;;;;;;-0.17;79.26;99070.72;5065773;28;20031;-70
2021/12/28 07:05:45;;;;;;;17.70;8.52;;;;;;;-0.24;79.09;99054.50;5065412;28;20064;-69
2021/12/28 07:08:11;;;;;;;9.88;6.35;;;;;;;-0.19;79.04;99046.91;5065481;28;20097;-70
2021/12/28 07:10:36;;;;;;;11.60;5.43;;;;;;;-0.37;79.71;99063.66;5064059;28;20020;-70
2021/12/28 07:13:01;;;;;;;22.75;9.73;;;;;;;-0.35;79.85;99063.69;5065183;28;20049;-70
2021/12/28 07:15:27;;;;;;;20.48;10.52;;;;;;;-0.47;80.08;99061.78;5065148;28;20104;-70
2021/12/28 07:17:52;;;;;;;20.88;11.88;;;;;;;-0.31;80.01;99055.22;5065133;28;20406;-70
2021/12/28 07:20:18;;;;;;;15.75;6.80;;;;;;;-0.39;80.11;99060.22;5065028;28;20032;-70
2021/12/28 07:22:44;;;;;;;18.00;10.00;;;;;;;-0.28;79.71;99035.72;5065055;28;20025;-71
2021/12/28 07:25:10;;;;;;;15.60;6.70;;;;;;;-0.36;80.11;99056.84;5065158;28;20017;-71
2021/12/28 07:27:36;;;;;;;18.13;9.93;;;;;;;-0.21;79.35;99051.13;5065183;28;20103;-70
2021/12/28 07:30:07;;;;;;;13.18;7.03;;;;;;;-0.19;79.55;99041.78;5065124;28;20017;-70
2021/12/28 07:32:33;;;;;;;20.13;8.70;;;;;;;-0.42;80.36;99052.53;5064955;28;20031;-70
2021/12/28 07:34:58;;;;;;;14.93;8.07;;;;;;;-0.21;79.89;99048.56;5065183;28;20048;-71
2021/12/28 07:37:24;;;;;;;19.63;6.32;;;;;;;-0.17;79.45;99040.09;5064715;28;20359;-70
2021/12/28 07:39:50;;;;;;;21.77;11.32;;;;;;;-0.43;80.39;99054.22;5064678;28;20053;-70
2021/12/28 07:42:17;;;;;;;25.88;11.40;;;;;;;-0.29;80.29;99066.31;5064676;28;20130;-70
2021/12/28 07:44:43;;;;;;;10.90;7.15;;;;;;;-0.35;80.47;99056.88;5064451;28;20033;-71
2021/12/28 07:47:08;;;;;;;15.75;7.28;;;;;;;-0.26;79.86;99043.41;5064444;28;20035;-70
2021/12/28 07:49:34;;;;;;;19.63;8.82;;;;;;;-0.19;80.03;99047.72;5064430;28;20048;-69
2021/12/28 07:51:59;;;;;;;21.73;9.00;;;;;;;-0.07;79.55;99041.94;5064455;28;20035;-70
2021/12/28 07:54:24;;;;;;;18.67;9.63;;;;;;;-0.22;80.13;99041.75;5064401;28;20013;-71
2021/12/28 07:56:50;;;;;;;20.85;9.00;;;;;;;-0.12;79.62;99046.13;5064657;28;20032;-70
2021/12/28 07:59:15;;;;;;;22.13;9.90;;;;;;;-0.03;79.48;99046.25;5064470;28;20039;-70
2021/12/28 08:01:40;;;;;;;17.60;8.02;;;;;;;-0.14;79.78;99047.78;5064528;28;20033;-70
2021/12/28 08:04:06;;;;;;;23.63;11.93;;;;;;;-0.24;80.04;99043.41;5064683;28;20024;-71
2021/12/28 08:06:32;;;;;;;23.52;10.25;;;;;;;-0.32;80.25;99033.13;5064067;28;20056;-70
2021/12/28 08:08:57;;;;;;;17.52;9.30;;;;;;;-0.09;79.81;99041.06;5064251;28;20024;-69
2021/12/28 08:11:23;;;;;;;18.60;9.02;;;;;;;-0.14;79.70;99069.06;5062734;28;20044;-70
2021/12/28 08:13:49;;;;;;;20.92;10.13;;;;;;;-0.36;81.02;99039.00;5064220;28;20372;-70
2021/12/28 08:16:15;;;;;;;23.35;9.88;;;;;;;-0.24;80.54;99039.19;5064030;28;20056;-70
2021/12/28 08:18:40;;;;;;;19.50;9.98;;;;;;;-0.21;80.17;99039.22;5063956;28;20041;-69
2021/12/28 08:21:06;;;;;;;19.92;7.97;;;;;;;-0.32;80.49;99020.38;5064132;28;20441;-70
2021/12/28 08:23:31;;;;;;;24.60;12.32;;;;;;;-0.30;80.65;99033.97;5063834;28;20025;-69
2021/12/28 08:25:56;;;;;;;20.15;10.70;;;;;;;-0.40;81.47;99046.59;5063946;28;20370;-70
2021/12/28 08:28:22;;;;;;;15.93;6.93;;;;;;;-0.17;80.07;99020.56;5062601;28;20082;-70
2021/12/28 08:30:47;;;;;;;15.70;7.28;;;;;;;-0.32;81.32;99028.00;5063966;28;20028;-69
2021/12/28 08:33:14;;;;;;;19.40;8.27;;;;;;;-0.39;81.12;99022.84;5063998;28;20021;-69
2021/12/28 08:35:40;;;;;;;24.35;11.05;;;;;;;-0.35;80.98;99018.59;5064064;28;20063;-70
2021/12/28 08:38:08;;;;;;;21.15;10.55;;;;;;;-0.24;81.08;99025.56;5063771;28;20009;-69
2021/12/28 08:40:34;;;;;;;22.65;9.15;;;;;;;-0.27;81.44;99032.34;5063642;28;20055;-69
2021/12/28 08:42:59;;;;;;;21.33;11.57;;;;;;;-0.33;81.31;99023.72;5063722;28;20029;-69
2021/12/28 08:45:24;;;;;;;18.27;10.43;;;;;;;-0.30;81.37;99013.56;5063916;28;20159;-70
2021/12/28 08:47:50;;;;;;;22.75;9.85;;;;;;;-0.04;80.61;99011.38;5063568;28;20583;-70
2021/12/28 08:50:18;;;;;;;20.02;7.75;;;;;;;-0.23;81.25;99020.47;5063518;28;20428;-69
2021/12/28 08:52:43;;;;;;;34.00;13.98;;;;;;;-0.40;81.72;99015.16;5063424;28;20025;-69
2021/12/28 08:55:10;;;;;;;22.38;11.05;;;;;;;-0.16;80.91;99013.78;5063715;28;20037;-70
2021/12/28 08:57:36;;;;;;;31.85;13.98;;;;;;;-0.29;81.61;99021.25;5063480;28;20025;-68
2021/12/28 09:00:05;;;;;;;21.75;12.07;;;;;;;-0.03;81.02;99007.97;5063425;28;20025;-70
2021/12/28 09:02:31;;;;;;;20.20;9.07;;;;;;;-0.14;81.34;99015.50;5063482;28;20048;-71
2021/12/28 09:04:56;;;;;;;17.48;8.45;;;;;;;-0.02;81.06;99007.13;5063574;28;20032;-72
2021/12/28 09:07:22;;;;;;;24.35;10.50;;;;;;;-0.37;82.04;98997.34;5061962;28;20090;-70
2021/12/28 09:09:47;;;;;;;16.50;8.98;;;;;;;-0.30;82.73;98998.25;5063294;28;20049;-70
2021/12/28 09:12:12;;;;;;;18.27;8.63;;;;;;;-0.54;83.19;98992.88;5063353;28;20068;-70
2021/12/28 09:14:39;;;;;;;23.50;10.90;;;;;;;-0.62;84.35;98986.78;5062086;28;20028;-69
2021/12/28 09:17:05;;;;;;;18.73;9.02;;;;;;;-0.35;83.80;98977.81;5063314;28;20023;-70
2021/12/28 09:19:31;;;;;;;22.20;11.32;;;;;;;-0.58;84.41;99008.97;5063156;28;20056;-70
2021/12/28 09:21:57;;;;;;;21.50;8.82;;;;;;;-0.63;84.93;98990.19;5063175;28;20488;-70
2021/12/28 09:24:22;;;;;;;18.05;8.07;;;;;;;-0.21;83.54;99002.66;5062158;28;20024;-69
2021/12/28 09:26:48;;;;;;;27.80;8.73;;;;;;;-0.35;84.32;98997.38;5063222;28;20079;-71
2021/12/28 09:29:13;;;;;;;24.25;13.07;;;;;;;-0.36;83.82;98988.84;5063071;28;20020;-71
2021/12/28 09:31:38;;;;;;;27.98;14.35;;;;;;;-0.46;84.38;98987.88;5063295;28;20028;-68
2021/12/28 09:34:04;;;;;;;33.97;14.38;;;;;;;-0.44;84.32;98977.69;5063255;28;20415;-69
2021/12/28 09:36:29;;;;;;;22.33;11.15;;;;;;;-0.45;84.96;98968.34;5064371;28;20025;-70
2021/12/28 09:38:55;;;;;;;33.78;13.07;;;;;;;-0.34;84.31;98976.13;5066999;28;20021;-68
2021/12/28 09:41:59;;;;;;;26.20;10.93;;;;;;;-0.43;83.90;98936.91;5067045;28;20036;-71
2021/12/28 09:44:25;;;;;;;17.33;9.00;;;;;;;-0.08;83.75;98975.59;5067050;28;20028;-70
2021/12/28 09:46:51;;;;;;;35.58;15.68;;;;;;;-0.38;84.58;98980.31;5065509;28;20025;-68
2021/12/28 09:49:17;;;;;;;39.80;16.58;;;;;;;-0.53;85.38;98986.91;5066909;28;20017;-69
2021/12/28 09:51:42;;;;;;;20.08;10.07;;;;;;;-0.40;85.59;98969.25;5065437;28;20025;-71
2021/12/28 09:54:07;;;;;;;20.65;9.50;;;;;;;-0.24;85.01;98977.97;5067021;28;20059;-69
2021/12/28 09:56:33;;;;;;;19.50;11.63;;;;;;;-0.20;83.82;98982.25;5066929;28;20100;-68
2021/12/28 09:59:00;;;;;;;24.65;10.63;;;;;;;-0.35;84.71;98970.16;5066996;28;20056;-68
2021/12/28 10:01:26;;;;;;;18.30;8.43;;;;;;;0.05;83.44;98984.25;5066952;28;20025;-68
2021/12/28 10:03:52;;;;;;;18.50;9.55;;;;;;;-0.23;84.54;98978.81;5066838;28;20025;-68
2021/12/28 10:06:25;;;;;;;24.75;10.02;;;;;;;-0.36;85.33;98980.34;5066335;28;20028;-68
2021/12/28 10:09:04;;;;;;;23.83;10.95;;;;;;;-0.33;85.29;98988.03;5066599;28;20028;-69
2021/12/28 10:11:38;;;;;;;19.42;10.10;;;;;;;0.08;83.83;98976.63;5066459;28;20056;-68
2021/12/28 10:14:26;;;;;;;18.17;8.93;;;;;;;0.13;83.45;98987.72;5066479;28;20477;-68
2021/12/28 10:17:04;;;;;;;24.48;12.77;;;;;;;-0.17;84.41;98989.09;5066561;28;20116;-69
2021/12/28 10:19:33;;;;;;;25.63;12.00;;;;;;;-0.15;84.98;98982.31;5066347;28;20071;-71
2021/12/28 10:22:25;;;;;;;16.27;8.95;;;;;;;-0.02;84.27;98978.22;5066310;28;20024;-70
2021/12/28 10:24:55;;;;;;;15.23;8.52;;;;;;;-0.19;85.31;98976.31;5064979;28;20027;-70
2021/12/28 10:27:23;;;;;;;34.55;15.75;;;;;;;-0.22;85.18;98972.88;5066494;28;20029;-70
2021/12/28 10:29:48;;;;;;;25.73;10.98;;;;;;;-0.25;85.47;98955.84;5066320;28;20031;-70
2021/12/28 10:32:16;;;;;;;19.15;8.18;;;;;;;-0.18;85.86;98956.75;5066559;28;20021;-70
2021/12/28 10:34:51;;;;;;;22.42;11.18;;;;;;;-0.08;85.18;98958.56;5066450;28;20104;-69
2021/12/28 10:37:22;;;;;;;25.70;8.70;;;;;;;0.23;84.20;98943.59;5064656;28;20101;-70
2021/12/28 10:39:51;;;;;;;24.65;10.98;;;;;;;-0.09;85.26;98954.31;5066356;28;20024;-72
2021/12/28 10:42:53;;;;;;;21.83;10.75;;;;;;;0.16;84.85;98943.53;5066266;28;20049;-71
2021/12/28 10:45:36;;;;;;;15.82;8.57;;;;;;;0.22;84.82;98946.97;5065878;28;20333;-72
2021/12/28 10:48:17;;;;;;;26.08;9.55;;;;;;;0.05;85.17;98908.53;5065323;28;20089;-71
2021/12/28 10:51:04;;;;;;;13.93;6.60;;;;;;;0.07;85.45;98918.75;5064462;28;20108;-71
2021/12/28 10:53:49;;;;;;;19.20;8.55;;;;;;;-0.16;86.67;98937.25;5065820;28;20041;-71
2021/12/28 10:56:15;;;;;;;14.90;8.98;;;;;;;0.23;85.44;98919.78;5065851;28;20017;-71
2021/12/28 10:58:46;;;;;;;25.90;10.73;;;;;;;0.19;85.48;98915.50;5066075;28;20160;-70
2021/12/28 11:01:18;;;;;;;17.20;8.98;;;;;;;0.17;85.39;98910.38;5065896;28;20048;-70
2021/12/28 11:03:49;;;;;;;19.83;9.27;;;;;;;0.04;86.32;98927.25;5065642;28;20029;-70
2021/12/28 11:06:19;;;;;;;25.98;10.43;;;;;;;0.16;86.18;98936.72;5065417;28;20445;-71
2021/12/28 11:08:50;;;;;;;19.25;9.15;;;;;;;0.24;85.55;98921.47;5065463;28;20089;-71
2021/12/28 11:11:20;;;;;;;19.77;8.52;;;;;;;0.35;84.94;98916.50;5065336;28;20106;-71
2021/12/28 11:13:46;;;;;;;15.88;8.30;;;;;;;0.31;85.12;98899.41;5065486;28;20041;-71
2021/12/28 11:16:13;;;;;;;18.42;9.27;;;;;;;0.31;85.47;98919.84;5065380;28;20025;-70
2021/12/28 11:18:47;;;;;;;22.75;9.55;;;;;;;0.02;86.72;98922.97;5065588;28;20048;-71
2021/12/28 11:21:22;;;;;;;19.42;9.13;;;;;;;0.20;86.53;98917.19;5065382;28;20048;-71
2021/12/28 11:23:52;;;;;;;19.90;10.52;;;;;;;0.09;86.66;98917.94;5065551;28;20080;-71
2021/12/28 11:26:37;;;;;;;14.30;6.18;;;;;;;0.13;86.64;98920.53;5065335;28;20021;-72
2021/12/28 11:29:07;;;;;;;15.15;7.95;;;;;;;0.31;86.05;98928.38;5065250;28;20024;-72